createdAt,value
2022-10-26T05:04:30.557Z,1.80
2022-10-26T05:07:34.382Z,2.33
2022-10-26T05:10:38.147Z,1.55
2022-10-26T05:13:42.378Z,1.57
2022-10-26T05:16:46.112Z,1.80
2022-10-26T05:19:56.138Z,1.75
2022-10-26T05:23:04.878Z,1.92
2022-10-26T05:26:08.875Z,1.67
2022-10-26T05:29:12.640Z,1.67
2022-10-26T05:32:17.530Z,1.77
2022-10-26T05:35:21.502Z,2.08
2022-10-26T05:41:33.257Z,2.00
2022-10-26T05:44:36.281Z,2.30
2022-10-26T05:47:44.019Z,1.95
2022-10-26T05:50:47.855Z,2.65
2022-10-26T05:53:54.905Z,2.08
2022-10-26T05:56:59.303Z,2.80
2022-10-26T06:00:09.708Z,2.17
2022-10-26T06:03:43.113Z,2.03
2022-10-26T06:06:54.000Z,2.70
2022-10-26T06:09:57.973Z,3.47
2022-10-26T06:13:01.529Z,2.53
2022-10-26T06:16:22.419Z,2.40
2022-10-26T06:19:38.458Z,2.90
2022-10-26T06:23:02.998Z,2.13
2022-10-26T06:26:34.852Z,1.90
2022-10-26T06:30:02.354Z,2.40
2022-10-26T06:33:18.474Z,1.80
2022-10-26T06:36:30.510Z,2.28
2022-10-26T06:39:40.126Z,3.33
2022-10-26T06:42:44.629Z,2.92
2022-10-26T06:46:15.250Z,2.28
2022-10-26T06:49:38.018Z,2.60
2022-10-26T06:53:03.233Z,1.98
2022-10-26T06:56:07.064Z,2.28
2022-10-26T06:59:22.399Z,2.10
2022-10-26T07:02:26.045Z,2.53
2022-10-26T07:05:29.137Z,2.47
2022-10-26T07:08:33.259Z,2.38
2022-10-26T07:11:36.574Z,2.40
2022-10-26T07:14:40.603Z,2.50
2022-10-26T07:17:46.487Z,2.55
2022-10-26T07:20:50.793Z,2.20
2022-10-26T07:23:56.379Z,2.22
2022-10-26T07:27:00.614Z,3.25
2022-10-26T07:30:05.696Z,3.13
2022-10-26T07:33:14.988Z,3.33
2022-10-26T07:36:18.734Z,2.80
2022-10-26T07:39:22.752Z,2.83
2022-10-26T07:42:26.490Z,3.58
2022-10-26T07:45:31.364Z,3.20
2022-10-26T07:48:35.205Z,4.10
2022-10-26T07:51:39.372Z,2.13
2022-10-26T07:54:42.936Z,1.70
2022-10-26T07:57:48.587Z,3.75
2022-10-26T08:00:57.827Z,3.80
2022-10-26T08:04:01.885Z,2.00
2022-10-26T08:07:05.296Z,1.80
2022-10-26T08:10:09.752Z,2.60
2022-10-26T08:13:13.575Z,2.05
2022-10-26T08:16:18.646Z,2.15
2022-10-26T08:19:22.389Z,2.72
2022-10-26T08:22:26.258Z,1.93
2022-10-26T08:25:30.461Z,2.17
2022-10-26T08:28:34.372Z,2.75
2022-10-26T08:31:37.983Z,2.92
2022-10-26T08:34:41.626Z,2.90
2022-10-26T08:37:45.466Z,4.53
2022-10-26T08:40:49.799Z,5.30
2022-10-26T08:43:59.505Z,6.03
2022-10-26T08:47:27.451Z,7.75
2022-10-26T08:50:40.471Z,5.72
2022-10-26T08:54:02.933Z,4.10
2022-10-26T08:57:17.075Z,3.95
2022-10-26T09:00:26.071Z,3.65
2022-10-26T09:03:29.865Z,3.15
2022-10-26T09:06:55.664Z,3.42
2022-10-26T09:13:58.898Z,3.53
2022-10-26T09:17:22.873Z,2.70
2022-10-26T09:20:29.996Z,3.13
2022-10-26T09:23:51.521Z,2.60
2022-10-26T09:27:01.087Z,3.73
2022-10-26T09:30:15.452Z,3.15
2022-10-26T09:33:26.219Z,3.60
2022-10-26T09:36:30.365Z,3.45
2022-10-26T09:39:41.172Z,3.50
2022-10-26T09:42:52.042Z,4.70
2022-10-26T09:45:59.273Z,4.15
2022-10-26T09:49:07.378Z,4.50
2022-10-26T09:55:21.478Z,5.10
2022-10-26T09:58:35.216Z,5.67
2022-10-26T10:01:41.575Z,5.35
2022-10-26T10:04:49.095Z,18.27
2022-10-26T10:07:53.237Z,31.08
2022-10-26T10:11:08.077Z,10.32
2022-10-26T10:14:17.006Z,8.57
2022-10-26T10:17:24.857Z,14.85
2022-10-26T10:20:33.358Z,8.18
2022-10-26T10:23:48.880Z,9.60
2022-10-26T10:26:58.430Z,8.40
2022-10-26T10:30:23.881Z,8.57
2022-10-26T10:33:35.870Z,9.73
2022-10-26T10:36:41.427Z,4.72
2022-10-26T10:39:45.210Z,5.53
2022-10-26T10:42:50.032Z,5.10
2022-10-26T10:45:59.566Z,5.53
2022-10-26T10:49:19.883Z,4.10
2022-10-26T10:52:29.101Z,4.68
2022-10-26T10:55:33.288Z,3.30
2022-10-26T10:58:54.895Z,3.53
2022-10-26T11:02:37.970Z,4.10
2022-10-26T11:06:34.582Z,3.75
2022-10-26T11:09:42.927Z,3.58
2022-10-26T11:12:54.121Z,31.23
2022-10-26T11:16:05.316Z,29.17
2022-10-26T11:19:39.300Z,32.53
2022-10-26T11:23:23.290Z,45.13
2022-10-26T11:26:33.460Z,45.33
2022-10-26T11:29:48.608Z,49.03
2022-10-26T11:32:57.568Z,46.80
2022-10-26T11:36:17.301Z,42.63
2022-10-26T11:39:29.493Z,42.17
2022-10-26T11:42:43.504Z,40.28
2022-10-26T11:45:50.981Z,40.05
2022-10-26T11:49:13.841Z,36.63
2022-10-26T11:52:23.394Z,33.53
2022-10-26T11:55:27.715Z,33.80
2022-10-26T11:58:33.287Z,30.67
2022-10-26T12:01:39.096Z,35.95
2022-10-26T12:04:45.362Z,36.72
2022-10-26T12:07:56.874Z,24.60
2022-10-26T12:11:23.032Z,24.60
2022-10-26T12:14:45.880Z,21.20
2022-10-26T12:18:26.849Z,20.00
2022-10-26T12:21:37.584Z,26.77
2022-10-26T12:24:47.161Z,23.13
2022-10-26T12:27:54.367Z,15.52
2022-10-26T12:31:35.626Z,24.15
2022-10-26T12:34:49.245Z,24.08
2022-10-26T12:37:52.790Z,25.45
2022-10-26T12:41:05.535Z,28.23
2022-10-26T12:44:52.433Z,25.08
2022-10-26T12:48:27.946Z,26.77
2022-10-26T12:51:43.880Z,27.92
2022-10-26T12:55:08.450Z,31.05
2022-10-26T12:58:39.312Z,34.53
2022-10-26T13:02:00.680Z,34.00
2022-10-26T13:05:32.056Z,51.00
2022-10-26T13:08:48.561Z,43.90
2022-10-26T13:11:56.565Z,43.70
2022-10-26T13:15:06.497Z,46.73
2022-10-26T13:18:18.802Z,46.17
2022-10-26T13:21:24.616Z,45.10
2022-10-26T13:24:31.703Z,40.03
2022-10-26T13:27:35.343Z,39.42
2022-10-26T13:30:47.493Z,40.80
2022-10-26T13:33:56.989Z,42.40
2022-10-26T13:37:26.617Z,45.58
2022-10-26T13:40:30.968Z,47.85
2022-10-26T13:43:37.241Z,43.00
2022-10-26T13:46:42.146Z,48.83
2022-10-26T13:49:49.260Z,40.42
2022-10-26T13:52:56.237Z,42.45
2022-10-26T13:56:18.790Z,50.65
2022-10-26T13:59:23.148Z,45.72
2022-10-26T14:02:31.504Z,47.90
2022-10-26T14:05:35.226Z,46.47
2022-10-26T14:08:42.696Z,46.67
2022-10-26T14:11:51.509Z,49.15
2022-10-26T14:15:03.647Z,49.20
2022-10-26T14:18:07.727Z,49.53
2022-10-26T14:21:20.826Z,45.45
2022-10-26T14:24:45.548Z,45.03
2022-10-26T14:27:50.424Z,38.55
2022-10-26T14:30:54.887Z,37.42
2022-10-26T14:34:00.556Z,34.43
2022-10-26T14:37:05.957Z,37.10
2022-10-26T14:40:21.007Z,36.38
2022-10-26T14:43:26.605Z,33.72
2022-10-26T14:46:36.049Z,32.60
2022-10-26T14:49:46.350Z,39.27
2022-10-26T14:52:55.544Z,42.15
2022-10-26T14:55:59.567Z,42.90
2022-10-26T14:59:13.139Z,39.38
2022-10-26T15:02:25.201Z,36.85
2022-10-26T15:05:36.110Z,32.10
2022-10-26T15:08:56.349Z,32.28
2022-10-26T15:12:00.742Z,32.55
2022-10-26T15:15:15.790Z,30.08
2022-10-26T15:18:29.266Z,32.38
2022-10-26T15:21:40.570Z,32.47
2022-10-26T15:24:44.198Z,32.47
2022-10-26T15:27:48.785Z,32.00
2022-10-26T15:31:07.512Z,40.92
2022-10-26T15:34:15.093Z,37.47
2022-10-26T15:37:19.152Z,40.20
2022-10-26T15:40:23.809Z,38.70
2022-10-26T15:43:27.827Z,37.03
2022-10-26T15:46:36.272Z,36.72
2022-10-26T15:49:39.829Z,36.35
2022-10-26T15:52:46.668Z,36.23
2022-10-26T15:55:54.560Z,29.85
2022-10-26T15:58:59.790Z,35.42
2022-10-26T16:02:03.641Z,36.80
2022-10-26T16:05:08.893Z,35.08
2022-10-26T16:08:18.501Z,32.40
2022-10-26T16:11:23.449Z,32.85
2022-10-26T16:14:30.027Z,30.92
2022-10-26T16:17:37.562Z,29.52
2022-10-26T16:20:41.502Z,30.17
2022-10-26T16:23:48.199Z,34.73
2022-10-26T16:26:51.394Z,31.10
2022-10-26T16:29:54.709Z,23.63
2022-10-26T16:32:57.852Z,25.15
2022-10-26T16:36:01.546Z,28.83
2022-10-26T16:39:04.753Z,27.33
2022-10-26T16:42:08.688Z,25.17
2022-10-26T16:45:13.716Z,22.13
2022-10-26T16:48:17.690Z,20.23
2022-10-26T16:51:29.723Z,20.75
2022-10-26T16:54:33.671Z,20.80
2022-10-26T16:57:38.207Z,19.33
2022-10-26T17:00:42.236Z,20.02
2022-10-26T17:03:47.139Z,19.63
2022-10-26T17:06:51.195Z,17.98
2022-10-26T17:09:54.150Z,15.37
2022-10-26T17:12:57.699Z,17.15
2022-10-26T17:16:05.878Z,14.88
2022-10-26T17:19:11.727Z,14.73
2022-10-26T17:22:14.716Z,15.98
2022-10-26T17:25:18.702Z,18.33
2022-10-26T17:28:22.486Z,16.98
2022-10-26T17:31:27.077Z,18.13
2022-10-26T17:34:31.252Z,16.10
2022-10-26T17:37:37.828Z,17.02
2022-10-26T17:40:40.814Z,14.30
2022-10-26T17:43:46.038Z,13.43
2022-10-26T17:46:49.702Z,14.35
2022-10-26T17:49:53.671Z,16.35
2022-10-26T17:52:56.764Z,12.50
2022-10-26T17:56:03.061Z,13.20
2022-10-26T17:59:10.510Z,14.38
2022-10-26T18:02:14.711Z,13.10
2022-10-26T18:05:18.375Z,13.57
2022-10-26T18:08:22.869Z,11.75
2022-10-26T18:11:27.596Z,12.73
2022-10-26T18:14:31.851Z,11.43
2022-10-26T18:17:35.128Z,13.27
2022-10-26T18:20:39.295Z,9.85
2022-10-26T18:23:42.890Z,15.80
2022-10-26T18:26:46.837Z,15.67
2022-10-26T18:29:49.784Z,16.40
2022-10-26T18:32:53.887Z,16.67
2022-10-26T18:36:04.502Z,18.63
2022-10-26T18:39:08.722Z,19.33
2022-10-26T18:42:11.709Z,20.53
2022-10-26T18:45:15.996Z,18.90
2022-10-26T18:48:19.989Z,19.20
2022-10-26T18:51:27.099Z,23.23
2022-10-26T18:54:31.755Z,24.90
2022-10-26T18:57:35.307Z,24.77
2022-10-26T19:00:44.022Z,26.35
2022-10-26T19:03:49.640Z,26.02
2022-10-26T19:06:52.992Z,24.55
2022-10-26T19:09:56.257Z,21.92
2022-10-26T19:12:59.457Z,21.60
2022-10-26T19:16:21.790Z,22.55
2022-10-26T19:19:36.640Z,21.00
2022-10-26T19:22:40.746Z,21.52
2022-10-26T19:25:44.403Z,21.48
2022-10-26T19:28:49.205Z,22.13
2022-10-26T19:31:56.232Z,21.90
2022-10-26T19:35:00.103Z,25.15
2022-10-26T19:38:03.965Z,23.70
2022-10-26T19:41:10.992Z,24.02
2022-10-26T19:44:15.449Z,23.27
2022-10-26T19:47:20.950Z,19.00
2022-10-26T19:50:24.612Z,14.60
2022-10-26T19:53:28.799Z,11.90
2022-10-26T19:56:33.904Z,9.77
2022-10-26T19:59:37.904Z,7.33
2022-10-26T20:02:41.569Z,6.63
2022-10-26T20:05:47.482Z,5.40
2022-10-26T20:08:51.240Z,5.68
2022-10-26T20:11:55.309Z,6.30
2022-10-26T20:14:59.029Z,5.20
2022-10-26T20:18:03.087Z,5.32
2022-10-26T20:21:16.244Z,4.20
2022-10-26T20:24:20.224Z,3.58
2022-10-26T20:27:24.033Z,3.83
2022-10-26T20:30:28.221Z,3.67
2022-10-26T20:33:31.933Z,4.32
2022-10-26T20:36:36.281Z,3.90
2022-10-26T20:39:40.193Z,5.43
2022-10-26T20:42:44.783Z,4.72
2022-10-26T20:45:48.603Z,4.60
2022-10-26T20:48:53.585Z,5.43
2022-10-26T20:52:20.835Z,5.82
2022-10-26T20:55:51.389Z,5.38
2022-10-26T20:58:57.104Z,5.65
2022-10-26T21:02:01.075Z,5.83
2022-10-26T21:05:05.405Z,5.35
2022-10-26T21:08:09.170Z,5.70
2022-10-26T21:11:12.845Z,5.88
2022-10-26T21:14:16.243Z,7.43
2022-10-26T21:17:19.963Z,7.63
2022-10-26T21:20:23.553Z,6.72
2022-10-26T21:23:32.292Z,8.57
2022-10-26T21:26:36.312Z,14.68
2022-10-26T21:29:39.968Z,17.25
2022-10-26T21:32:44.000Z,15.90
2022-10-26T21:35:55.125Z,15.30
2022-10-26T21:38:58.784Z,14.13
2022-10-26T21:42:03.403Z,16.65
2022-10-26T21:45:08.276Z,15.80
2022-10-26T21:48:11.967Z,14.63
2022-10-26T21:51:21.309Z,18.77
2022-10-26T21:54:24.981Z,19.67
2022-10-26T21:57:29.230Z,17.13
2022-10-26T22:00:32.963Z,19.05
2022-10-26T22:03:37.843Z,14.93
2022-10-26T22:06:41.444Z,14.75
2022-10-26T22:10:00.505Z,13.27
2022-10-26T22:13:09.216Z,13.65
2022-10-26T22:16:19.944Z,16.10
2022-10-26T22:19:23.645Z,17.00
2022-10-26T22:22:27.683Z,17.48
2022-10-26T22:25:34.544Z,14.73
2022-10-26T22:28:42.643Z,19.45
2022-10-26T22:31:46.708Z,19.75
2022-10-26T22:34:56.483Z,19.27
2022-10-26T22:38:14.026Z,22.85
2022-10-26T22:41:19.272Z,27.20
2022-10-26T22:44:22.871Z,24.92
2022-10-26T22:47:27.488Z,23.23
2022-10-26T22:50:31.145Z,21.53
2022-10-26T22:53:35.098Z,20.15
2022-10-26T22:56:38.916Z,25.38
2022-10-26T22:59:42.976Z,22.77
2022-10-26T23:02:46.337Z,27.77
2022-10-26T23:05:50.307Z,22.47
2022-10-26T23:08:53.996Z,23.58
2022-10-26T23:11:58.003Z,19.83
2022-10-26T23:15:01.560Z,18.30
2022-10-26T23:18:05.571Z,21.23
2022-10-26T23:21:11.095Z,19.60
2022-10-26T23:24:15.181Z,19.75
2022-10-26T23:27:18.580Z,21.60
2022-10-26T23:30:22.599Z,21.65
2022-10-26T23:33:25.966Z,21.85
2022-10-26T23:36:30.039Z,21.70
2022-10-26T23:39:33.724Z,24.70
2022-10-26T23:42:37.880Z,24.35
2022-10-26T23:45:42.385Z,26.60
2022-10-26T23:48:46.550Z,26.65
2022-10-26T23:51:50.054Z,28.10
2022-10-26T23:54:53.581Z,23.45
2022-10-26T23:57:57.334Z,22.52
